Andover, Illinois
Current Conditions -  °F | °C
As of 3:52 PM on Sunday 23 Nov 2014 (Local Time) from KMLI Reporting Station
Light Rain Light Rain  
Wind Chill: 52°   Ceiling: 900
Heat Index: 52°   Visibility: 2mi
Dew Point: 51°   Wind: 7mph
Humidity: 97%   Direction: 160°SSE
Pressure: 29.35"   Gusts: NA
Location:  41.29°N, 90.29°W
Report Text: KMLI 232152Z 16006KT 2SM -RA BR BKN009 OVC013 11/11 A2935 RMK AO2 CIG 006V010 SLP939 P0006 T01110106 $
Loading
Personal Weather Stations






























Interactive Weather Map New forecast layout! Learn more

10-Day Weather Forecast

Advertisements
Track Severe Weather on mobile